createdAt,value
2023-09-17T00:01:04.683Z,22.10
2023-09-17T00:03:33.798Z,22.10
2023-09-17T00:06:01.917Z,22.10
2023-09-17T00:08:29.786Z,22.10
2023-09-17T00:10:57.735Z,22.00
2023-09-17T00:13:25.772Z,21.90
2023-09-17T00:15:54.600Z,21.90
2023-09-17T00:18:22.626Z,22.00
2023-09-17T00:20:50.533Z,22.00
2023-09-17T00:23:18.567Z,22.00
2023-09-17T00:25:46.595Z,22.10
2023-09-17T00:28:15.186Z,22.00
2023-09-17T00:30:45.249Z,21.90
2023-09-17T00:33:13.249Z,21.80
2023-09-17T00:35:41.291Z,21.80
2023-09-17T00:38:10.886Z,21.70
2023-09-17T00:40:40.494Z,21.80
2023-09-17T00:43:10.624Z,21.80
2023-09-17T00:45:40.134Z,21.80
2023-09-17T00:48:09.194Z,21.80
2023-09-17T00:50:40.086Z,21.70
2023-09-17T00:53:09.011Z,21.70
2023-09-17T00:55:38.393Z,21.60
2023-09-17T00:58:07.134Z,21.80
2023-09-17T01:00:39.758Z,21.60
2023-09-17T01:03:08.445Z,21.70
2023-09-17T01:05:42.450Z,21.70
2023-09-17T01:08:11.477Z,21.70
2023-09-17T01:10:42.780Z,21.60
2023-09-17T01:13:11.404Z,21.60
2023-09-17T01:15:39.768Z,21.60
2023-09-17T01:18:10.966Z,21.60
2023-09-17T01:20:56.425Z,21.60
2023-09-17T01:23:35.155Z,21.60
2023-09-17T01:26:31.502Z,21.60
2023-09-17T01:29:00.632Z,21.60
2023-09-17T01:31:28.720Z,21.70
2023-09-17T01:33:56.812Z,21.70
2023-09-17T01:36:30.337Z,21.80
2023-09-17T01:39:16.136Z,21.90
2023-09-17T01:41:46.281Z,21.80
2023-09-17T01:44:15.604Z,21.70
2023-09-17T01:46:44.271Z,21.70
2023-09-17T01:49:13.572Z,21.70
2023-09-17T01:51:42.860Z,21.80
2023-09-17T01:54:11.670Z,21.90
2023-09-17T01:56:39.601Z,22.00
2023-09-17T01:59:08.244Z,22.00
2023-09-17T02:01:36.394Z,22.00
2023-09-17T02:04:04.796Z,22.20
2023-09-17T02:06:32.764Z,22.10
2023-09-17T02:09:00.781Z,21.80
2023-09-17T02:11:29.431Z,21.70
2023-09-17T02:13:57.354Z,21.70
2023-09-17T02:16:26.555Z,21.70
2023-09-17T02:18:55.641Z,21.70
2023-09-17T02:21:24.448Z,21.70
2023-09-17T02:23:53.032Z,21.70
2023-09-17T02:26:21.402Z,21.70
2023-09-17T02:28:49.439Z,21.90
2023-09-17T02:31:17.630Z,22.00
2023-09-17T02:33:45.554Z,22.10
2023-09-17T02:36:14.851Z,22.20
2023-09-17T02:38:42.753Z,22.30
2023-09-17T02:41:10.612Z,22.20
2023-09-17T02:43:38.685Z,22.20
2023-09-17T02:46:07.117Z,21.80
2023-09-17T02:48:35.060Z,21.70
2023-09-17T02:51:04.026Z,21.70
2023-09-17T02:53:31.909Z,21.50
2023-09-17T02:56:00.233Z,21.40
2023-09-17T02:58:28.168Z,21.60
2023-09-17T03:00:56.079Z,21.40
2023-09-17T03:03:25.254Z,21.40
2023-09-17T03:05:55.433Z,21.30
2023-09-17T03:08:24.305Z,21.30
2023-09-17T03:10:59.915Z,21.30
2023-09-17T03:13:28.766Z,21.30
2023-09-17T03:15:58.672Z,21.30
2023-09-17T03:18:27.155Z,21.30
2023-09-17T03:20:55.925Z,21.50
2023-09-17T03:23:23.802Z,21.40
2023-09-17T03:25:52.023Z,21.40
2023-09-17T03:28:20.131Z,21.30
2023-09-17T03:30:48.470Z,21.40
2023-09-17T03:33:16.554Z,21.50
2023-09-17T03:35:47.977Z,21.30
2023-09-17T03:38:16.272Z,21.30
2023-09-17T03:40:44.650Z,21.30
2023-09-17T03:43:12.679Z,21.20
2023-09-17T03:45:40.931Z,21.10
2023-09-17T03:48:09.198Z,21.00
2023-09-17T03:50:40.797Z,20.90
2023-09-17T03:53:09.417Z,20.90
2023-09-17T03:55:37.822Z,21.00
2023-09-17T03:58:07.627Z,21.00
2023-09-17T04:00:40.459Z,21.00
2023-09-17T04:03:09.983Z,21.00
2023-09-17T04:05:38.152Z,20.90
2023-09-17T04:08:06.347Z,21.00
2023-09-17T04:10:34.344Z,21.00
2023-09-17T04:13:02.370Z,21.00
2023-09-17T04:15:30.304Z,20.90
2023-09-17T04:17:58.249Z,20.90
2023-09-17T04:20:28.508Z,20.80
2023-09-17T04:22:56.606Z,20.80
2023-09-17T04:25:26.151Z,20.50
2023-09-17T04:27:56.761Z,20.40
2023-09-17T04:30:25.704Z,20.60
2023-09-17T04:32:56.507Z,20.60
2023-09-17T04:35:25.161Z,20.70
2023-09-17T04:37:53.042Z,20.70
2023-09-17T04:40:32.715Z,20.60
2023-09-17T04:43:05.725Z,20.60
2023-09-17T04:45:39.944Z,20.50
2023-09-17T04:48:24.267Z,20.60
2023-09-17T04:50:52.389Z,20.30
2023-09-17T04:53:20.596Z,20.20
2023-09-17T04:55:50.262Z,20.20
2023-09-17T04:58:21.953Z,20.30
2023-09-17T05:00:50.845Z,20.30
2023-09-17T05:03:19.745Z,20.60
2023-09-17T05:05:48.073Z,20.80
2023-09-17T05:08:18.325Z,20.70
2023-09-17T05:10:47.481Z,20.40
2023-09-17T05:13:15.685Z,20.40
2023-09-17T05:15:44.015Z,20.40
2023-09-17T05:18:12.906Z,20.40
2023-09-17T05:20:48.726Z,20.50
2023-09-17T05:23:17.747Z,20.50
2023-09-17T05:25:46.282Z,20.60
2023-09-17T05:28:16.288Z,20.70
2023-09-17T05:30:44.545Z,20.70
2023-09-17T05:33:12.634Z,21.00
2023-09-17T05:35:41.131Z,21.20
2023-09-17T05:38:10.431Z,21.00
2023-09-17T05:40:38.367Z,21.10
2023-09-17T05:43:06.577Z,21.20
2023-09-17T05:45:34.857Z,21.40
2023-09-17T05:48:03.406Z,21.40
2023-09-17T05:50:31.595Z,21.30
2023-09-17T05:52:59.719Z,21.10
2023-09-17T05:55:28.218Z,21.00
2023-09-17T05:57:57.838Z,21.10
2023-09-17T06:00:27.009Z,21.00
2023-09-17T06:02:55.019Z,21.10
2023-09-17T06:05:29.239Z,21.20
2023-09-17T06:07:58.214Z,21.30
2023-09-17T06:10:26.821Z,21.10
2023-09-17T06:12:54.971Z,21.10
2023-09-17T06:15:23.359Z,21.40
2023-09-17T06:17:52.973Z,21.30
2023-09-17T06:20:21.811Z,21.30
2023-09-17T06:22:50.171Z,21.40
2023-09-17T06:25:18.279Z,21.50
2023-09-17T06:27:48.039Z,21.70
2023-09-17T06:30:17.090Z,21.70
2023-09-17T06:32:45.196Z,21.80
2023-09-17T06:35:13.222Z,21.90
2023-09-17T06:37:41.490Z,21.90
2023-09-17T06:40:12.015Z,22.00
2023-09-17T06:42:41.071Z,21.90
2023-09-17T06:45:10.542Z,22.00
2023-09-17T06:47:38.873Z,22.10
2023-09-17T06:50:07.919Z,22.20
2023-09-17T06:52:36.423Z,22.20
2023-09-17T06:55:06.245Z,22.30
2023-09-17T06:57:37.177Z,22.50
2023-09-17T07:00:10.884Z,22.60
2023-09-17T07:02:38.931Z,22.80
2023-09-17T07:05:09.136Z,22.70
2023-09-17T07:07:37.471Z,22.80
2023-09-17T07:10:06.145Z,22.90
2023-09-17T07:12:39.472Z,23.00
2023-09-17T07:15:08.314Z,23.00
2023-09-17T07:17:37.502Z,23.10
2023-09-17T07:20:06.434Z,23.20
2023-09-17T07:22:34.288Z,23.40
2023-09-17T07:25:02.261Z,23.30
2023-09-17T07:27:31.710Z,23.20
2023-09-17T07:30:00.142Z,23.40
2023-09-17T07:32:29.198Z,23.50
2023-09-17T07:34:57.639Z,23.60
2023-09-17T07:37:30.538Z,23.50
2023-09-17T07:40:07.016Z,23.60
2023-09-17T07:42:34.886Z,23.40
2023-09-17T07:45:02.777Z,23.60
2023-09-17T07:47:31.240Z,23.60
2023-09-17T07:49:59.182Z,23.60
2023-09-17T07:52:27.108Z,23.80
2023-09-17T07:54:55.070Z,23.60
2023-09-17T07:57:22.990Z,23.70
2023-09-17T07:59:51.229Z,23.70
2023-09-17T08:02:19.196Z,23.90
2023-09-17T08:04:47.538Z,23.90
2023-09-17T08:07:15.931Z,23.90
2023-09-17T08:09:44.391Z,23.70
2023-09-17T08:12:12.310Z,23.80
2023-09-17T08:14:47.456Z,23.70
2023-09-17T08:17:15.881Z,24.00
2023-09-17T08:19:43.740Z,24.20
2023-09-17T08:22:11.854Z,24.20
2023-09-17T08:24:40.262Z,24.30
2023-09-17T08:27:08.229Z,24.40
2023-09-17T08:29:36.222Z,24.50
2023-09-17T08:32:05.524Z,24.30
2023-09-17T08:34:34.034Z,24.50
2023-09-17T08:37:02.092Z,24.30
2023-09-17T08:39:35.298Z,24.40
2023-09-17T08:42:04.922Z,24.40
2023-09-17T08:44:36.209Z,24.50
2023-09-17T08:47:06.344Z,24.50
2023-09-17T08:49:35.236Z,24.80
2023-09-17T08:52:07.541Z,24.90
2023-09-17T08:54:44.004Z,25.20
2023-09-17T08:57:15.800Z,25.20
2023-09-17T08:59:47.829Z,25.10
2023-09-17T09:02:31.020Z,24.90
2023-09-17T09:05:05.385Z,25.10
2023-09-17T09:07:36.889Z,25.20
2023-09-17T09:10:10.185Z,25.20
2023-09-17T09:12:40.679Z,25.50
2023-09-17T09:15:16.818Z,25.40
2023-09-17T09:17:47.034Z,25.50
2023-09-17T09:20:22.153Z,25.70
2023-09-17T09:22:51.315Z,25.90
2023-09-17T09:25:22.681Z,26.00
2023-09-17T09:27:58.618Z,26.00
2023-09-17T09:30:29.514Z,26.10
2023-09-17T09:32:59.998Z,26.20
2023-09-17T09:35:31.151Z,26.10
2023-09-17T09:38:03.788Z,26.30
2023-09-17T09:40:44.743Z,26.10
2023-09-17T09:43:35.264Z,26.20
2023-09-17T09:46:09.224Z,26.10
2023-09-17T09:48:46.403Z,26.20
2023-09-17T09:51:18.992Z,26.40
2023-09-17T09:53:51.424Z,26.50
2023-09-17T09:56:23.623Z,26.40
2023-09-17T09:58:52.249Z,26.60
2023-09-17T10:01:20.731Z,26.40
2023-09-17T10:03:49.461Z,26.60
2023-09-17T10:06:17.961Z,26.70
2023-09-17T10:08:47.013Z,26.90
2023-09-17T10:11:18.572Z,27.00
2023-09-17T10:13:47.573Z,27.10
2023-09-17T10:16:16.519Z,27.10
2023-09-17T10:18:48.680Z,27.00
2023-09-17T10:21:18.880Z,26.90
2023-09-17T10:23:48.254Z,26.90
2023-09-17T10:26:20.176Z,26.70
2023-09-17T10:28:49.541Z,26.90
2023-09-17T10:31:17.793Z,26.80
2023-09-17T10:33:49.678Z,26.90
2023-09-17T10:36:18.249Z,27.00
2023-09-17T10:38:48.009Z,27.00
2023-09-17T10:41:17.342Z,27.00
2023-09-17T10:43:47.764Z,27.00
2023-09-17T10:46:17.562Z,26.90
2023-09-17T10:48:48.001Z,27.00
2023-09-17T10:51:17.471Z,27.00
2023-09-17T10:53:45.434Z,27.00
2023-09-17T10:56:17.418Z,27.30
2023-09-17T10:58:50.405Z,27.20
2023-09-17T11:01:30.672Z,27.30
2023-09-17T11:04:08.903Z,27.30
2023-09-17T11:06:38.933Z,27.60
2023-09-17T11:09:07.263Z,27.50
2023-09-17T11:11:36.410Z,27.50
2023-09-17T11:14:05.925Z,27.80
2023-09-17T11:16:37.321Z,27.80
2023-09-17T11:19:18.044Z,28.00
2023-09-17T11:21:49.405Z,28.00
2023-09-17T11:24:19.749Z,28.00
2023-09-17T11:26:49.348Z,28.00
2023-09-17T11:29:17.376Z,27.70
2023-09-17T11:31:55.022Z,27.80
2023-09-17T11:34:23.651Z,27.90
2023-09-17T11:36:53.474Z,27.80
2023-09-17T11:39:24.190Z,27.60
2023-09-17T11:41:55.432Z,28.10
2023-09-17T11:44:25.342Z,28.10
2023-09-17T11:46:53.334Z,28.30
2023-09-17T11:49:21.283Z,27.90
2023-09-17T11:51:50.340Z,28.10
2023-09-17T11:54:22.751Z,27.90
2023-09-17T11:56:55.293Z,27.80
2023-09-17T11:59:25.481Z,27.80
2023-09-17T12:01:58.971Z,28.00
2023-09-17T12:04:32.498Z,28.10
2023-09-17T12:07:01.095Z,28.10
2023-09-17T12:09:43.334Z,28.30
2023-09-17T12:12:21.530Z,28.00
2023-09-17T12:14:50.920Z,28.20
2023-09-17T12:17:19.264Z,28.30
2023-09-17T12:19:50.592Z,28.40
2023-09-17T12:22:18.653Z,28.30
2023-09-17T12:25:04.389Z,28.30
2023-09-17T12:27:35.120Z,28.40
2023-09-17T12:30:07.396Z,28.30
2023-09-17T12:32:35.700Z,28.20
2023-09-17T12:35:08.126Z,28.00
2023-09-17T12:37:36.079Z,27.90
2023-09-17T12:40:08.617Z,28.20
2023-09-17T12:42:37.290Z,28.00
2023-09-17T12:45:05.562Z,28.00
2023-09-17T12:47:34.019Z,28.20
2023-09-17T12:50:04.308Z,28.40
2023-09-17T12:52:32.532Z,28.40
2023-09-17T12:55:02.565Z,28.30
2023-09-17T12:57:31.484Z,28.30
2023-09-17T12:59:59.929Z,28.40
2023-09-17T13:02:32.859Z,28.70
2023-09-17T13:05:00.921Z,28.80
2023-09-17T13:07:31.409Z,28.80
2023-09-17T13:10:00.882Z,28.40
2023-09-17T13:12:29.071Z,28.40
2023-09-17T13:14:57.596Z,28.50
2023-09-17T13:17:28.780Z,28.80
2023-09-17T13:19:58.330Z,28.80
2023-09-17T13:22:26.973Z,28.80
2023-09-17T13:24:55.482Z,29.00
2023-09-17T13:27:23.649Z,28.70
2023-09-17T13:29:56.036Z,28.90
2023-09-17T13:32:24.235Z,29.00
2023-09-17T13:34:53.260Z,29.00
2023-09-17T13:37:21.298Z,29.20
2023-09-17T13:39:54.090Z,28.80
2023-09-17T13:42:22.757Z,28.90
2023-09-17T13:44:51.227Z,29.00
2023-09-17T13:47:19.125Z,29.40
2023-09-17T13:49:47.133Z,29.40
2023-09-17T13:52:15.244Z,29.60
2023-09-17T13:54:47.176Z,29.50
2023-09-17T13:57:15.649Z,29.70
2023-09-17T13:59:43.636Z,29.80
2023-09-17T14:02:13.278Z,29.50
2023-09-17T14:04:41.868Z,29.20
2023-09-17T14:07:09.895Z,29.40
2023-09-17T14:09:38.036Z,29.40
2023-09-17T14:12:09.237Z,29.50
2023-09-17T14:14:37.104Z,29.10
2023-09-17T14:17:06.252Z,29.20
2023-09-17T14:19:34.229Z,29.20
2023-09-17T14:22:02.141Z,29.20
2023-09-17T14:24:30.325Z,29.40
2023-09-17T14:26:58.522Z,29.30
2023-09-17T14:29:26.646Z,29.40
2023-09-17T14:31:54.721Z,29.20
2023-09-17T14:34:22.797Z,29.10
2023-09-17T14:36:50.744Z,29.00
2023-09-17T14:39:19.218Z,29.30
2023-09-17T14:41:47.349Z,29.00
2023-09-17T14:44:15.439Z,28.90
2023-09-17T14:46:43.920Z,28.90
2023-09-17T14:49:12.655Z,28.60
2023-09-17T14:51:40.920Z,28.50
2023-09-17T14:54:09.627Z,28.50
2023-09-17T14:56:37.758Z,28.50
2023-09-17T14:59:05.970Z,28.70
2023-09-17T15:01:58.603Z,28.70
2023-09-17T15:04:22.899Z,28.80
2023-09-17T15:06:51.658Z,28.70
2023-09-17T15:09:19.667Z,28.70
2023-09-17T15:11:48.321Z,28.70
2023-09-17T15:14:16.442Z,28.80
2023-09-17T15:16:44.602Z,28.70
2023-09-17T15:19:12.686Z,28.60
2023-09-17T15:21:40.563Z,28.60
2023-09-17T15:24:08.791Z,28.50
2023-09-17T15:26:38.425Z,28.50
2023-09-17T15:29:06.570Z,28.50
2023-09-17T15:31:40.077Z,28.40
2023-09-17T15:34:09.235Z,28.40
2023-09-17T15:36:42.652Z,28.60
2023-09-17T15:39:10.982Z,28.60
2023-09-17T15:41:40.047Z,28.70
2023-09-17T15:44:08.468Z,28.50
2023-09-17T15:46:37.301Z,28.50
2023-09-17T15:49:05.646Z,28.40
2023-09-17T15:51:34.057Z,28.30
2023-09-17T15:54:02.029Z,28.20
2023-09-17T15:56:30.016Z,28.40
2023-09-17T15:58:58.049Z,28.30
2023-09-17T16:01:26.986Z,28.30
2023-09-17T16:03:55.208Z,28.20
2023-09-17T16:06:24.996Z,28.20
2023-09-17T16:08:55.841Z,28.30
2023-09-17T16:11:24.736Z,28.40
2023-09-17T16:13:53.007Z,28.30
2023-09-17T16:16:21.376Z,28.30
2023-09-17T16:18:49.269Z,28.20
2023-09-17T16:21:17.510Z,28.30
2023-09-17T16:23:45.573Z,28.30
2023-09-17T16:26:13.654Z,28.40
2023-09-17T16:28:42.050Z,28.30
2023-09-17T16:31:10.050Z,28.30
2023-09-17T16:33:38.129Z,28.40
2023-09-17T16:36:06.220Z,28.30
2023-09-17T16:38:35.170Z,28.10
2023-09-17T16:41:03.881Z,28.00
2023-09-17T16:43:32.044Z,28.00
2023-09-17T16:46:00.221Z,27.90
2023-09-17T16:48:28.430Z,27.80
2023-09-17T16:50:56.736Z,27.80
2023-09-17T16:53:24.869Z,27.80
2023-09-17T16:55:52.868Z,27.80
2023-09-17T16:58:20.862Z,27.80
2023-09-17T17:00:50.225Z,27.70
2023-09-17T17:03:18.878Z,27.70
2023-09-17T17:05:47.092Z,27.70
2023-09-17T17:08:15.146Z,27.60
2023-09-17T17:10:44.099Z,27.50
2023-09-17T17:13:13.515Z,27.40
2023-09-17T17:15:42.166Z,27.30
2023-09-17T17:18:11.503Z,27.20
2023-09-17T17:20:39.885Z,27.10
2023-09-17T17:23:08.068Z,27.00
2023-09-17T17:25:36.896Z,26.80
2023-09-17T17:28:05.464Z,26.70
2023-09-17T17:30:33.811Z,26.70
2023-09-17T17:33:01.803Z,26.60
2023-09-17T17:35:30.205Z,26.40
2023-09-17T17:37:58.192Z,26.30
2023-09-17T17:40:28.167Z,26.30
2023-09-17T17:42:56.357Z,26.20
2023-09-17T17:45:24.364Z,26.10
2023-09-17T17:47:52.377Z,26.10
2023-09-17T17:50:23.317Z,26.10
2023-09-17T17:52:51.739Z,26.00
2023-09-17T17:55:19.793Z,26.00
2023-09-17T17:57:48.040Z,25.90
2023-09-17T18:00:16.177Z,25.90
2023-09-17T18:02:47.526Z,25.80
2023-09-17T18:05:16.130Z,25.70
2023-09-17T18:07:46.394Z,25.60
2023-09-17T18:10:15.478Z,25.60
2023-09-17T18:12:43.613Z,25.50
2023-09-17T18:15:12.141Z,25.50
2023-09-17T18:17:40.270Z,25.40
2023-09-17T18:20:08.747Z,25.40
2023-09-17T18:22:36.647Z,25.40
2023-09-17T18:25:05.164Z,25.40
2023-09-17T18:27:33.187Z,25.40
2023-09-17T18:30:01.117Z,25.40
2023-09-17T18:32:29.354Z,25.40
2023-09-17T18:34:57.415Z,25.30
2023-09-17T18:37:27.982Z,25.20
2023-09-17T18:39:56.402Z,25.10
2023-09-17T18:42:24.665Z,25.10
2023-09-17T18:44:52.595Z,25.00
2023-09-17T18:47:22.083Z,25.00
2023-09-17T18:49:50.140Z,24.80
2023-09-17T18:52:19.055Z,24.80
2023-09-17T18:54:47.444Z,24.80
2023-09-17T18:57:16.666Z,24.80
2023-09-17T18:59:45.937Z,24.80
2023-09-17T19:02:15.160Z,24.80
2023-09-17T19:04:43.156Z,24.80
2023-09-17T19:07:11.043Z,24.90
2023-09-17T19:09:38.916Z,24.90
2023-09-17T19:12:08.960Z,24.90
2023-09-17T19:14:41.525Z,24.90
2023-09-17T19:17:09.824Z,25.00
2023-09-17T19:19:37.835Z,25.00
2023-09-17T19:22:10.415Z,25.10
2023-09-17T19:24:38.774Z,25.20
2023-09-17T19:27:07.241Z,25.10
2023-09-17T19:29:35.150Z,25.00
2023-09-17T19:32:03.188Z,25.00
2023-09-17T19:34:31.197Z,24.90
2023-09-17T19:36:59.171Z,24.90
2023-09-17T19:39:27.673Z,24.90
2023-09-17T19:41:55.636Z,24.80
2023-09-17T19:44:23.622Z,24.70
2023-09-17T19:46:53.732Z,24.80
2023-09-17T19:49:21.892Z,24.70
2023-09-17T19:51:50.124Z,24.80
2023-09-17T19:54:18.096Z,24.80
2023-09-17T19:56:48.132Z,24.80
2023-09-17T19:59:16.752Z,24.80
2023-09-17T20:01:47.510Z,24.80
2023-09-17T20:04:16.984Z,24.80
2023-09-17T20:06:54.589Z,24.80
2023-09-17T20:09:23.480Z,24.80
2023-09-17T20:11:51.399Z,24.90
2023-09-17T20:14:19.530Z,24.80
2023-09-17T20:16:47.464Z,24.80
2023-09-17T20:19:16.172Z,24.80
2023-09-17T20:21:44.086Z,24.80
2023-09-17T20:24:12.174Z,24.40
2023-09-17T20:26:44.461Z,24.30
2023-09-17T20:29:13.297Z,24.20
2023-09-17T20:31:41.374Z,24.10
2023-09-17T20:34:09.693Z,24.00
2023-09-17T20:36:38.281Z,24.00
2023-09-17T20:39:07.140Z,24.00
2023-09-17T20:41:35.049Z,24.00
2023-09-17T20:44:03.113Z,24.00
2023-09-17T20:46:31.450Z,24.00
2023-09-17T20:49:00.571Z,24.00
2023-09-17T20:51:29.338Z,24.00
2023-09-17T20:53:59.035Z,24.20
2023-09-17T20:56:29.986Z,24.30
2023-09-17T20:59:00.062Z,24.50
2023-09-17T21:01:28.096Z,24.60
2023-09-17T21:03:56.217Z,24.60
2023-09-17T21:06:24.186Z,24.60
2023-09-17T21:08:52.229Z,24.50
2023-09-17T21:11:21.483Z,24.40
2023-09-17T21:13:49.571Z,24.30
2023-09-17T21:16:18.298Z,24.30
2023-09-17T21:18:46.151Z,24.10
2023-09-17T21:21:14.108Z,24.10
2023-09-17T21:23:41.976Z,24.00
2023-09-17T21:26:11.116Z,23.90
2023-09-17T21:28:39.850Z,23.90
2023-09-17T21:31:08.690Z,23.70
2023-09-17T21:33:36.567Z,23.70
2023-09-17T21:36:04.685Z,23.70
2023-09-17T21:38:32.530Z,23.70
2023-09-17T21:41:00.595Z,23.70
2023-09-17T21:43:28.443Z,23.70
2023-09-17T21:45:56.276Z,23.70
2023-09-17T21:48:24.098Z,23.80
2023-09-17T21:50:51.942Z,23.80
2023-09-17T21:53:24.803Z,23.70
2023-09-17T21:55:52.866Z,23.70
2023-09-17T21:58:20.754Z,23.50
2023-09-17T22:00:49.210Z,23.50
2023-09-17T22:03:18.124Z,23.40
2023-09-17T22:05:47.085Z,23.40
2023-09-17T22:08:15.089Z,23.40
2023-09-17T22:10:43.000Z,23.40
2023-09-17T22:13:15.303Z,23.30
2023-09-17T22:15:43.142Z,23.20
2023-09-17T22:18:11.090Z,23.20
2023-09-17T22:20:39.022Z,23.20
2023-09-17T22:23:07.173Z,23.20
2023-09-17T22:25:35.020Z,23.20
2023-09-17T22:28:03.032Z,23.10
2023-09-17T22:30:32.017Z,23.20
2023-09-17T22:33:00.050Z,23.30
2023-09-17T22:35:28.095Z,23.30
2023-09-17T22:37:56.167Z,23.40
2023-09-17T22:40:24.074Z,23.40
2023-09-17T22:42:51.858Z,23.50
2023-09-17T22:45:19.754Z,23.50
2023-09-17T22:47:47.621Z,23.40
2023-09-17T22:50:15.627Z,23.30
2023-09-17T22:52:43.540Z,23.30
2023-09-17T22:55:11.892Z,23.20
2023-09-17T22:57:39.715Z,23.10
2023-09-17T23:00:12.355Z,23.00
2023-09-17T23:02:40.347Z,23.00
2023-09-17T23:05:09.743Z,23.00
2023-09-17T23:07:37.684Z,23.00
2023-09-17T23:10:06.092Z,23.00
2023-09-17T23:12:33.966Z,23.00
2023-09-17T23:15:01.971Z,22.90
2023-09-17T23:17:29.856Z,22.90
2023-09-17T23:19:57.832Z,22.90
2023-09-17T23:22:26.486Z,22.90
2023-09-17T23:24:55.405Z,22.80
2023-09-17T23:27:25.159Z,22.70
2023-09-17T23:29:53.067Z,22.70
2023-09-17T23:32:21.294Z,22.60
2023-09-17T23:34:49.279Z,22.60
2023-09-17T23:37:17.074Z,22.70
2023-09-17T23:39:45.053Z,22.70
2023-09-17T23:42:13.081Z,22.70
2023-09-17T23:44:41.046Z,22.70
2023-09-17T23:47:08.838Z,22.70
2023-09-17T23:49:36.848Z,22.60
2023-09-17T23:52:05.163Z,22.60
2023-09-17T23:54:33.024Z,22.60
2023-09-17T23:57:00.887Z,22.50
2023-09-17T23:59:28.840Z,22.50
